Bewolking Meer informatie Parkstad Weather Satellite


Neerslag Meer informatie Parkstad Rain Snow Radar


Onweersbuien Meer informatie Parkstad Lighntning


24/7 Weercamera Meer informatie Parkstad Weathercam


Natuurbrandrisico
CBI






Het weer levert geen direct gevaar op in Parkstad.    Er zijn geen waarschuwingen afgegeven voor Parkstad (045)

METAR rapporten vliegvelden

   
EHBK - Beek Nederland
Gewijzigd: 18-10-2018 17:55
Licht bewolkt  
Licht bewolkt  
   Wind: NNO 14.8 km/h
Wind: NNO 14.8 km/h
Temperatuur: 15°C
Dauwpunt: 11°C
Vochtigheid: 77%
Barometer: 1023 hPa
Satelliet beelden: Licht bewolkt
Zicht: meer dan 10 km
Bewolking: Licht bewolkt 1128 m
EHBK 181555Z AUTO 03008KT 360V060 9999 FEW037 15/11 Q1023 NOSIG
EHBK - Maastricht Nederland
Gewijzigd: 18-10-2018 17:55
Licht bewolkt  
Licht bewolkt  
   Wind: NNO 14.8 km/h
Wind: NNO 14.8 km/h
Temperatuur: 15°C
Dauwpunt: 11°C
Vochtigheid: 77%
Barometer: 1023 hPa
Satelliet beelden: Licht bewolkt
Zicht: meer dan 10 km
Bewolking: Licht bewolkt 1128 m
EHBK 181555Z AUTO 03008KT 360V060 9999 FEW037 15/11 Q1023 NOSIG
EBLG - Liège België
Gewijzigd: 18-10-2018 17:50
Licht bewolkt  
Licht bewolkt  
   Wind: NNO 13 km/h
Wind: NNO 13 km/h
Temperatuur: 15°C
Dauwpunt: 10°C
Vochtigheid: 72%
Barometer: 1023 hPa
Satelliet beelden: Licht bewolkt
Zicht: meer dan 10 km
Bewolking: Licht bewolkt 732 m
EBLG 181550Z 03007KT 9999 FEW024 15/10 Q1023 NOSIG
EDDK - Köln/Bonn Duitsland
Gewijzigd: 18-10-2018 17:50
Helder  
Helder  
   Wind: NNO 7.4 km/h
Wind: NNO 7.4 km/h
Temperatuur: 17°C
Dauwpunt: 9°C
Vochtigheid: 59%
Barometer: 1022 hPa
Zicht: meer dan 10 km
Bewolking: Helder
EDDK 181550Z 03004KT CAVOK 17/09 Q1022 NOSIG
EDDL - Düsseldorf Duitsland
Gewijzigd: 18-10-2018 17:50
Grotendeels bewolkt  
Grotendeels bewolkt  
   Wind: Noorden 18.5 km/h
Wind: Noorden 18.5 km/h
Temperatuur: 15°C
Dauwpunt: 11°C
Vochtigheid: 77%
Barometer: 1023 hPa
Satelliet beelden: Grotendeels bewolkt
Zicht: meer dan 10 km
Bewolking: Licht bewolkt 518 m,
Grotendeels bewolkt 671 m,
Grotendeels bewolkt 1219 m
EDDL 181550Z 36010KT 9999 FEW017 BKN022 BKN040 15/11 Q1023 NOSIG
EHEH - Eindhoven Nederland
Gewijzigd: 18-10-2018 17:55
Bewolking  
Bewolking  
   Wind: Noorden 9.3 km/h
Wind: Noorden 9.3 km/h
Temperatuur: 15°C
Dauwpunt: 10°C
Vochtigheid: 72%
Barometer: 1024 hPa
Satelliet beelden: Bewolking
Zicht: meer dan 10 km
Bewolking: Grotendeels bewolkt 945 m,
Bewolking 1097 m
EHEH 181555Z AUTO 01005KT 240V040 9999 BKN031 OVC036 15/10 Q1024 BLU 02005KT 9999 OVC031
ELLX - Luxemburg Luxemburg
Gewijzigd: 18-10-2018 17:50
Nevel, Grotendeels bewolkt  
Nevel, Grotendeels bewolkt  
   Wind: NNO 27.8 km/h
Wind: NNO 27.8 km/h
Temperatuur: 15°C
Dauwpunt: 11°C
Vochtigheid: 77%
Barometer: 1021 hPa
Satelliet beelden: Grotendeels bewolkt
Zicht: 4 km
Bewolking: Grotendeels bewolkt 671 m
ELLX 181550Z 03015KT 4000 HZ BKN022 15/11 Q1021 NOSIG
EGLL - London England
Gewijzigd: 18-10-2018 17:50
Grotendeels bewolkt  
Grotendeels bewolkt  
   Wind: NO 13 km/h
Wind: NO 13 km/h
Temperatuur: 15°C
Dauwpunt: 9°C
Vochtigheid: 68%
Barometer: 1026 hPa
Satelliet beelden: Grotendeels bewolkt
Zicht: meer dan 10 km
Bewolking: Licht bewolkt 1036 m,
Grotendeels bewolkt 1250 m
EGLL 181550Z AUTO 04007KT 350V070 9999 FEW034 BKN041 15/09 Q1026
EBAW - Antwerpen België
Gewijzigd: 18-10-2018 17:50
Grotendeels bewolkt  
Grotendeels bewolkt  
   Wind: NNO 13 km/h
Wind: NNO 13 km/h
Temperatuur: 15°C
Dauwpunt: 9°C
Vochtigheid: 68%
Barometer: 1024 hPa
Satelliet beelden: Grotendeels bewolkt
Zicht: meer dan 10 km
Bewolking: Grotendeels bewolkt 1006 m
EBAW 181550Z 03007KT 9999 BKN033 15/09 Q1024 NOSIG
EBOS - Oostende België
Gewijzigd: 18-10-2018 17:50
Licht bewolkt  
Licht bewolkt  
   Wind: NO 25.9 km/h
Wind: NO 25.9 km/h
Temperatuur: 14°C
Dauwpunt: 8°C
Vochtigheid: 67%
Barometer: 1025 hPa
Satelliet beelden: Licht bewolkt
Zicht: meer dan 10 km
Bewolking: Licht bewolkt 1219 m
EBOS 181550Z 04014KT 9999 FEW040 14/08 Q1025 NOSIG
LEAL - La Nucia Spanje
Gewijzigd: 18-10-2018 18:00
Grotendeels bewolkt  
Grotendeels bewolkt  
   Wind: varieert 3.7 km/h
Wind: varieert 3.7 km/h
Temperatuur: 23°C
Dauwpunt: 13°C
Vochtigheid: 53%
Barometer: 1007 hPa
Satelliet beelden: Grotendeels bewolkt
Zicht: meer dan 10 km
Bewolking: Licht bewolkt 244 m,
Grotendeels bewolkt 1829 m
LEAL 181600Z VRB02KT 9999 FEW008 BKN060 23/13 Q1007 NOSIG
TNCA - Oranjestad Aruba
Gewijzigd: 18-10-2018 18:00
Zware onweersbui, Neerslag, Grotendeels bewolkt  
Zware onweersbui, Neerslag, Grotendeels bewolkt  
   Wind: Oosten 31.5 km/h
Wind: Oosten 31.5 km/h
Temperatuur: 25°C
Dauwpunt: 23°C
Vochtigheid: 89%
Barometer: 1012 hPa
Satelliet beelden: Grotendeels bewolkt
Zicht: 2 km
Bewolking: Licht bewolkt 305 m,
Grotendeels bewolkt 427 m
TNCA 181600Z 10017KT 2000 +TSRA FEW010CB BKN014 25/23 Q1012 RERA TEMPO 9999 NSW FEW014CB SCT014TCU
TNCC - Willemstad Curacao
Gewijzigd: 18-10-2018 18:00
Nabijgelegen buien, Gedeeltelijk bewolkt  
Nabijgelegen buien, Gedeeltelijk bewolkt  
   Wind: Oosten 16.7 km/h
Wind: Oosten 16.7 km/h
Temperatuur: 29°C
Gevoelstemperatuur: 34°C
Dauwpunt: 25°C
Vochtigheid: 79%
Barometer: 1011 hPa
Satelliet beelden: Gedeeltelijk bewolkt
Zicht: meer dan 10 km
Bewolking: Gedeeltelijk bewolkt 549 m
TNCC 181600Z 09009KT 9999 VCSH SCT018TCU 29/25 Q1011 TEMPO 07015G25KT 3000 TSRA SCT010CB BKN012TCU
MTPP - Port au Prince Haitië
Gewijzigd: 18-10-2018 17:00
Licht bewolkt  
Licht bewolkt  
   Wind: Oosten 22.2 km/h
Wind: Oosten 22.2 km/h
Temperatuur: 32°C
Gevoelstemperatuur: 37°C
Dauwpunt: 23°C
Vochtigheid: 59%
Barometer: 1014 hPa
Satelliet beelden: Licht bewolkt
Zicht: meer dan 10 km
Bewolking: Licht bewolkt 793 m
MTPP 181500Z 09012KT 9999 FEW026 32/23 Q1014 A2994
ENVA - Trondheim Noorwegen
Gewijzigd: 18-10-2018 17:50
Kleine regenbuien, Neerslag, Grotendeels bewolkt  
Kleine regenbuien, Neerslag, Grotendeels bewolkt  
   Wind: WZW 29.6 km/h
Wind: WZW 29.6 km/h
Temperatuur: 8°C
Voelt als: 4°C
Dauwpunt: 4°C
Vochtigheid: 76%
Barometer: 1018 hPa
Satelliet beelden: Grotendeels bewolkt
Zicht: meer dan 10 km
Bewolking: Licht bewolkt 579 m,
Grotendeels bewolkt 1006 m
ENVA 181550Z 25016KT 9999 -SHRA FEW019 BKN033 08/04 Q1018 TEMPO SHRA RMK WIND 670FT 23011KT
ENBO - Bodø Noorwegen
Gewijzigd: 18-10-2018 17:50
Regenbuien, Neerslag, Grotendeels bewolkt  
Regenbuien, Neerslag, Grotendeels bewolkt  
   Wind: WZW 55.6 km/h
Wind: WZW 55.6 km/h
Temperatuur: 8°C
Voelt als: 3°C
Dauwpunt: 8°C
Vochtigheid: 100%
Barometer: 1002 hPa
Satelliet beelden: Grotendeels bewolkt
Zicht: 7 km
Bewolking: Licht bewolkt 213 m,
Gedeeltelijk bewolkt 427 m,
Grotendeels bewolkt 610 m
ENBO 181550Z 24030KT 7000 SHRA FEW007 SCT014 BKN020 08/08 Q1002 TEMPO 23030G45KT 4000 SHRA BKN014CB
ETNG - Geilenkirchen Duitsland
Gewijzigd: 18-10-2018 17:50
Licht bewolkt  
Licht bewolkt  
   Wind: NNO 9.3 km/h
Wind: NNO 9.3 km/h
Temperatuur: 15°C
Dauwpunt: 12°C
Vochtigheid: 82%
Barometer: 1023 hPa
Satelliet beelden: Licht bewolkt
Zicht: meer dan 10 km
Bewolking: Licht bewolkt 671 m
ETNG 181550Z 02005KT 9999 FEW022 15/12 Q1023 NOSIG
 

Script ontwikkeld door  Saratoga-weather.org Aangepast voor de template door  Weerstation Leuven

U vindt ons ook hier:

Het Weer Aktueel

WOW Nederland KNMI

Vereniging voor Weerkunde en Klimatologie

UK Met Office Weather Observation Website (WOW)

WeatherCloud

Weather Underground

Awekas

Weatherlink IP

HAMweather, WeatherForYou, PWS Weather

Citizen Weather Observer Program (CWOP)

Apparatuur in gebruik:

Hardwareleverancier
Weerhuisje

Weerstation
Vantage Pro2+ +UV

Weercomputer's
alix3d2 & wl330n

Weerprogramma's
Smartbedded

Satelliet NOAA's
WRX137 & KX137

Satelliet Eumetsat
Ayecka SR1 & Triax

Bliksemdetectie
Boltek StormTracker

Webleverancier
F-Service

Weerhuisje

Vantage Pro2+ +UV

alix3d2 & wl330n

Smartbedded

WRX137 & KX137

Ayecka SR1 & Triax

Boltek StormTracker

F-Service